East Falmouth, Massachusetts
Current Conditions -  °F | °C
As of 9:55 PM on Saturday 25 Oct 2014 (Local Time) from KFMH Reporting Station
Overcast Overcast  
Wind Chill: 57°   Ceiling: 8500
Heat Index: 57°   Visibility: 10mi
Dew Point: 52°   Wind: 8mph
Humidity: 82%   Direction: 220°SW
Pressure: 29.58"   Gusts: NA
Location:  41.58°N, 70.56°W
Report Text: KFMH 260155Z AUTO 22007KT 10SM BKN085 OVC100 14/11 A2958 RMK AO2
Loading
Personal Weather Stations






























Interactive Weather Map
Tropical Storm Tracking
New forecast layout! Learn more

10-Day Weather Forecast

Advertisements
Track Severe Weather on mobile